IRA957T GMML-GQNO
Flight info
| Callsign | IRA957T |
|---|---|
| Flight time | 1h 42m |
| Altitude | 31000 |
| Route | LAY DCT KEMUL/N0445F330 DCT DISMA DCT LARMO DCT ARIDO DCT ERENA DCT KISBA DCT BOTLO DCT INEDI |
| Aircraft | A320/M-SDE3FGHIRWY/LB1 |
Departure
| Time | 2026-04-23 19:17 |
|---|---|
| Airport | Laayoune Hassan I International Airport (GMML) |
Arrival
| Time | 2026-04-23 20:59 |
|---|---|
| Airport | Nouakchott–Oumtounsy International Airport (GQNO) |
| Time | Latitude | Longitude | Altitude | Speed | Heading |
|---|---|---|---|---|---|
| 2026-04-23 19:04 | 27.15383 | -13.22468 | 225 ft | 0 kts | 31° |
| 2026-04-23 19:12 | 27.15380 | -13.22470 | 225 ft | 3 kts | 28° |
| 2026-04-23 19:12 | 27.15358 | -13.22475 | 224 ft | 4 kts | 324° |
| 2026-04-23 19:12 | 27.15345 | -13.22459 | 228 ft | 0 kts | 302° |
| 2026-04-23 19:15 | 27.15356 | -13.22479 | 224 ft | 7 kts | 302° |
| 2026-04-23 19:15 | 27.15365 | -13.22544 | 224 ft | 8 kts | 254° |
| 2026-04-23 19:15 | 27.15348 | -13.22637 | 224 ft | 16 kts | 258° |
| 2026-04-23 19:15 | 27.15289 | -13.22753 | 225 ft | 21 kts | 215° |
| 2026-04-23 19:16 | 27.15090 | -13.22843 | 227 ft | 58 kts | 197° |
| 2026-04-23 19:16 | 27.14476 | -13.23051 | 222 ft | 123 kts | 197° |
| 2026-04-23 19:16 | 27.13494 | -13.23375 | 311 ft | 161 kts | 195° |
| 2026-04-23 19:17 | 27.11329 | -13.23995 | 1505 ft | 168 kts | 195° |
| 2026-04-23 19:17 | 27.10104 | -13.24071 | 1839 ft | 190 kts | 166° |
| 2026-04-23 19:17 | 27.08732 | -13.23740 | 2143 ft | 215 kts | 181° |
| 2026-04-23 19:17 | 27.07183 | -13.24056 | 2527 ft | 239 kts | 197° |
| 2026-04-23 19:18 | 27.05560 | -13.24697 | 3150 ft | 252 kts | 201° |
| 2026-04-23 19:18 | 27.03903 | -13.25401 | 3970 ft | 257 kts | 200° |
| 2026-04-23 19:18 | 27.02211 | -13.26081 | 4821 ft | 260 kts | 199° |
| 2026-04-23 19:18 | 27.00508 | -13.26716 | 5632 ft | 263 kts | 198° |
| 2026-04-23 19:19 | 26.96959 | -13.27917 | 7246 ft | 270 kts | 196° |
| 2026-04-23 19:19 | 26.95143 | -13.28499 | 8033 ft | 273 kts | 196° |
| 2026-04-23 19:20 | 26.91437 | -13.29662 | 8833 ft | 277 kts | 195° |
| 2026-04-23 19:20 | 26.89577 | -13.30241 | 9084 ft | 278 kts | 195° |
| 2026-04-23 19:20 | 26.87711 | -13.30818 | 9335 ft | 279 kts | 195° |
| 2026-04-23 19:20 | 26.85839 | -13.31396 | 9583 ft | 280 kts | 195° |
| 2026-04-23 19:21 | 26.83958 | -13.31980 | 9837 ft | 281 kts | 195° |
| 2026-04-23 19:21 | 26.80107 | -13.33177 | 10348 ft | 302 kts | 195° |
| 2026-04-23 19:21 | 26.78019 | -13.33830 | 10604 ft | 319 kts | 195° |
| 2026-04-23 19:22 | 26.75862 | -13.34501 | 10860 ft | 324 kts | 195° |
| 2026-04-23 19:22 | 26.73683 | -13.35177 | 11109 ft | 326 kts | 195° |
| 2026-04-23 19:22 | 26.69299 | -13.36541 | 11606 ft | 328 kts | 195° |
| 2026-04-23 19:23 | 26.67097 | -13.37228 | 11859 ft | 329 kts | 195° |
| 2026-04-23 19:23 | 26.64887 | -13.37916 | 12109 ft | 330 kts | 195° |
| 2026-04-23 19:23 | 26.62668 | -13.38605 | 12360 ft | 332 kts | 195° |
| 2026-04-23 19:24 | 26.58202 | -13.39992 | 12862 ft | 334 kts | 195° |
| 2026-04-23 19:24 | 26.55959 | -13.40689 | 13112 ft | 336 kts | 195° |
| 2026-04-23 19:24 | 26.51440 | -13.42095 | 13615 ft | 338 kts | 195° |
| 2026-04-23 19:25 | 26.46894 | -13.43499 | 14115 ft | 340 kts | 195° |
| 2026-04-23 19:25 | 26.42315 | -13.44907 | 14616 ft | 343 kts | 195° |
| 2026-04-23 19:26 | 26.37701 | -13.46329 | 15115 ft | 345 kts | 195° |
| 2026-04-23 19:26 | 26.35383 | -13.47044 | 15368 ft | 346 kts | 195° |
| 2026-04-23 19:27 | 26.30723 | -13.48482 | 15871 ft | 349 kts | 195° |
| 2026-04-23 19:27 | 26.23662 | -13.50656 | 16623 ft | 353 kts | 195° |
| 2026-04-23 19:28 | 26.18913 | -13.52119 | 17123 ft | 355 kts | 195° |
| 2026-04-23 19:28 | 26.14128 | -13.53597 | 17626 ft | 358 kts | 195° |
| 2026-04-23 19:29 | 26.11724 | -13.54337 | 17878 ft | 359 kts | 195° |
| 2026-04-23 19:29 | 26.06887 | -13.55820 | 18378 ft | 362 kts | 195° |
| 2026-04-23 19:30 | 26.02015 | -13.57310 | 18879 ft | 365 kts | 195° |
| 2026-04-23 19:30 | 25.99565 | -13.58061 | 19130 ft | 366 kts | 195° |
| 2026-04-23 19:30 | 25.94637 | -13.59573 | 19632 ft | 369 kts | 195° |
| 2026-04-23 19:31 | 25.92157 | -13.60334 | 19890 ft | 370 kts | 195° |
| 2026-04-23 19:31 | 25.89671 | -13.61095 | 20131 ft | 371 kts | 195° |
| 2026-04-23 19:31 | 25.87177 | -13.61858 | 20380 ft | 373 kts | 195° |
| 2026-04-23 19:31 | 25.84672 | -13.62624 | 20634 ft | 374 kts | 195° |
| 2026-04-23 19:32 | 25.82158 | -13.63393 | 20885 ft | 375 kts | 195° |
| 2026-04-23 19:32 | 25.79634 | -13.64164 | 21136 ft | 377 kts | 195° |
| 2026-04-23 19:32 | 25.77102 | -13.64939 | 21387 ft | 378 kts | 195° |
| 2026-04-23 19:32 | 25.74559 | -13.65716 | 21643 ft | 379 kts | 195° |
| 2026-04-23 19:33 | 25.72010 | -13.66495 | 21888 ft | 381 kts | 195° |
| 2026-04-23 19:33 | 25.69451 | -13.67278 | 22138 ft | 382 kts | 195° |
| 2026-04-23 19:33 | 25.64303 | -13.68846 | 22640 ft | 385 kts | 195° |
| 2026-04-23 19:34 | 25.61716 | -13.69632 | 22884 ft | 386 kts | 195° |
| 2026-04-23 19:34 | 25.59120 | -13.70425 | 23141 ft | 388 kts | 195° |
| 2026-04-23 19:34 | 25.53896 | -13.72026 | 23643 ft | 391 kts | 195° |
| 2026-04-23 19:35 | 25.51266 | -13.72824 | 23893 ft | 393 kts | 195° |
| 2026-04-23 19:35 | 25.48629 | -13.73622 | 24144 ft | 394 kts | 195° |
| 2026-04-23 19:35 | 25.45980 | -13.74425 | 24395 ft | 396 kts | 195° |
| 2026-04-23 19:35 | 25.43320 | -13.75232 | 24645 ft | 397 kts | 195° |
| 2026-04-23 19:36 | 25.40649 | -13.76042 | 24896 ft | 399 kts | 195° |
| 2026-04-23 19:36 | 25.37969 | -13.76857 | 25149 ft | 400 kts | 195° |
| 2026-04-23 19:36 | 25.35277 | -13.77674 | 25398 ft | 402 kts | 195° |
| 2026-04-23 19:36 | 25.32578 | -13.78491 | 25648 ft | 403 kts | 195° |
| 2026-04-23 19:37 | 25.29865 | -13.79312 | 25896 ft | 405 kts | 195° |
| 2026-04-23 19:37 | 25.27137 | -13.80137 | 26149 ft | 407 kts | 195° |
| 2026-04-23 19:37 | 25.24403 | -13.80963 | 26400 ft | 408 kts | 195° |
| 2026-04-23 19:37 | 25.21660 | -13.81790 | 26649 ft | 410 kts | 195° |
| 2026-04-23 19:38 | 25.18903 | -13.82621 | 26902 ft | 411 kts | 195° |
| 2026-04-23 19:38 | 25.16139 | -13.83458 | 27152 ft | 413 kts | 195° |
| 2026-04-23 19:38 | 25.13366 | -13.84300 | 27404 ft | 414 kts | 195° |
| 2026-04-23 19:38 | 25.10583 | -13.85143 | 27657 ft | 416 kts | 195° |
| 2026-04-23 19:39 | 25.07809 | -13.86063 | 27902 ft | 417 kts | 201° |
| 2026-04-23 19:39 | 25.05186 | -13.87446 | 28152 ft | 419 kts | 211° |
| 2026-04-23 19:39 | 25.02814 | -13.89321 | 28403 ft | 421 kts | 221° |
| 2026-04-23 19:39 | 25.00773 | -13.91635 | 28654 ft | 422 kts | 231° |
| 2026-04-23 19:40 | 24.99136 | -13.94322 | 28904 ft | 424 kts | 241° |
| 2026-04-23 19:40 | 24.97726 | -13.97182 | 29158 ft | 426 kts | 241° |
| 2026-04-23 19:40 | 24.96305 | -14.00051 | 29409 ft | 427 kts | 241° |
| 2026-04-23 19:40 | 24.94874 | -14.02928 | 29659 ft | 429 kts | 241° |
| 2026-04-23 19:41 | 24.93432 | -14.05816 | 29909 ft | 431 kts | 241° |
| 2026-04-23 19:41 | 24.91982 | -14.08710 | 30160 ft | 432 kts | 241° |
| 2026-04-23 19:41 | 24.90530 | -14.11611 | 30411 ft | 434 kts | 241° |
| 2026-04-23 19:41 | 24.89072 | -14.14526 | 30661 ft | 435 kts | 241° |
| 2026-04-23 19:42 | 24.87612 | -14.17446 | 30904 ft | 436 kts | 241° |
| 2026-04-23 19:42 | 24.84727 | -14.23217 | 31008 ft | 418 kts | 241° |
| 2026-04-23 19:43 | 24.81951 | -14.28755 | 31009 ft | 411 kts | 241° |
| 2026-04-23 19:43 | 24.79195 | -14.34261 | 31009 ft | 410 kts | 241° |
| 2026-04-23 19:44 | 24.76438 | -14.39761 | 31009 ft | 410 kts | 241° |
| 2026-04-23 19:44 | 24.73682 | -14.45258 | 31009 ft | 410 kts | 241° |
| 2026-04-23 19:45 | 24.70915 | -14.50746 | 31007 ft | 410 kts | 241° |
| 2026-04-23 19:45 | 24.68145 | -14.56224 | 31006 ft | 410 kts | 241° |
| 2026-04-23 19:46 | 24.65374 | -14.61708 | 31005 ft | 410 kts | 241° |
| 2026-04-23 19:46 | 24.62605 | -14.67183 | 31005 ft | 410 kts | 241° |
| 2026-04-23 19:47 | 24.60306 | -14.71733 | 31005 ft | 410 kts | 241° |
| 2026-04-23 19:47 | 24.57070 | -14.78134 | 31005 ft | 410 kts | 241° |
| 2026-04-23 19:48 | 24.54302 | -14.83606 | 31007 ft | 410 kts | 241° |
| 2026-04-23 19:48 | 24.51528 | -14.89074 | 31008 ft | 410 kts | 241° |
| 2026-04-23 19:49 | 24.48749 | -14.94535 | 31007 ft | 410 kts | 241° |
| 2026-04-23 19:49 | 24.45990 | -14.99968 | 31010 ft | 415 kts | 241° |
| 2026-04-23 19:50 | 24.43117 | -15.05609 | 31010 ft | 429 kts | 240° |
| 2026-04-23 19:50 | 24.40189 | -15.11352 | 31009 ft | 432 kts | 240° |
| 2026-04-23 19:51 | 24.37256 | -15.17101 | 31009 ft | 432 kts | 240° |
| 2026-04-23 19:51 | 24.34322 | -15.22851 | 31009 ft | 432 kts | 240° |
| 2026-04-23 19:52 | 24.31863 | -15.27670 | 31008 ft | 432 kts | 240° |
| 2026-04-23 19:52 | 24.28450 | -15.34344 | 31004 ft | 432 kts | 240° |
| 2026-04-23 19:53 | 24.25502 | -15.40071 | 31000 ft | 431 kts | 240° |
| 2026-04-23 19:53 | 24.22556 | -15.45792 | 30999 ft | 431 kts | 240° |
| 2026-04-23 19:54 | 24.19625 | -15.51521 | 31001 ft | 431 kts | 240° |
| 2026-04-23 19:54 | 24.16683 | -15.57245 | 30996 ft | 431 kts | 240° |
| 2026-04-23 19:55 | 24.13056 | -15.62432 | 30994 ft | 431 kts | 222° |
| 2026-04-23 19:55 | 24.08494 | -15.66683 | 30993 ft | 431 kts | 220° |
| 2026-04-23 19:56 | 24.03930 | -15.70926 | 30993 ft | 431 kts | 220° |
| 2026-04-23 19:56 | 24.00128 | -15.74452 | 30994 ft | 431 kts | 220° |
| 2026-04-23 19:57 | 23.95551 | -15.78691 | 30994 ft | 431 kts | 220° |
| 2026-04-23 19:57 | 23.90988 | -15.82908 | 30995 ft | 431 kts | 220° |
| 2026-04-23 19:58 | 23.86411 | -15.87139 | 30995 ft | 431 kts | 220° |
| 2026-04-23 19:58 | 23.81834 | -15.91373 | 30995 ft | 431 kts | 220° |
| 2026-04-23 19:59 | 23.77252 | -15.95599 | 30995 ft | 431 kts | 220° |
| 2026-04-23 19:59 | 23.72672 | -15.99822 | 30995 ft | 431 kts | 220° |
| 2026-04-23 20:00 | 23.68089 | -16.04047 | 30995 ft | 431 kts | 220° |
| 2026-04-23 20:00 | 23.63504 | -16.08262 | 30995 ft | 431 kts | 220° |
| 2026-04-23 20:01 | 23.58812 | -16.12326 | 30994 ft | 431 kts | 212° |
| 2026-04-23 20:01 | 23.53319 | -16.14869 | 30994 ft | 430 kts | 197° |
| 2026-04-23 20:02 | 23.47601 | -16.16816 | 30992 ft | 431 kts | 197° |
| 2026-04-23 20:02 | 23.41882 | -16.18768 | 30992 ft | 431 kts | 197° |
| 2026-04-23 20:03 | 23.36158 | -16.20717 | 30993 ft | 431 kts | 197° |
| 2026-04-23 20:03 | 23.30438 | -16.22665 | 30993 ft | 431 kts | 197° |
| 2026-04-23 20:04 | 23.24713 | -16.24607 | 30994 ft | 431 kts | 197° |
| 2026-04-23 20:04 | 23.18986 | -16.26549 | 30994 ft | 431 kts | 197° |
| 2026-04-23 20:05 | 23.13282 | -16.28486 | 31011 ft | 438 kts | 197° |
| 2026-04-23 20:05 | 23.07386 | -16.30487 | 31009 ft | 442 kts | 197° |
| 2026-04-23 20:06 | 23.01546 | -16.32461 | 31009 ft | 443 kts | 197° |
| 2026-04-23 20:06 | 22.95657 | -16.34452 | 31009 ft | 443 kts | 197° |
| 2026-04-23 20:07 | 22.89772 | -16.36437 | 31008 ft | 443 kts | 197° |
| 2026-04-23 20:07 | 22.83895 | -16.38421 | 31005 ft | 443 kts | 197° |
| 2026-04-23 20:08 | 22.78016 | -16.40407 | 31001 ft | 443 kts | 197° |
| 2026-04-23 20:08 | 22.72138 | -16.42387 | 30999 ft | 442 kts | 197° |
| 2026-04-23 20:09 | 22.66220 | -16.44384 | 30997 ft | 442 kts | 197° |
| 2026-04-23 20:09 | 22.60383 | -16.46345 | 30997 ft | 442 kts | 197° |
| 2026-04-23 20:10 | 22.54501 | -16.48315 | 30994 ft | 442 kts | 197° |
| 2026-04-23 20:10 | 22.48623 | -16.50288 | 30994 ft | 442 kts | 197° |
| 2026-04-23 20:11 | 22.42746 | -16.52261 | 30994 ft | 442 kts | 197° |
| 2026-04-23 20:11 | 22.36870 | -16.54231 | 30993 ft | 442 kts | 197° |
| 2026-04-23 20:12 | 22.30990 | -16.56196 | 30993 ft | 442 kts | 197° |
| 2026-04-23 20:12 | 22.25115 | -16.58159 | 30993 ft | 442 kts | 197° |
| 2026-04-23 20:13 | 22.19238 | -16.60128 | 30993 ft | 442 kts | 197° |
| 2026-04-23 20:13 | 22.13359 | -16.62094 | 30993 ft | 442 kts | 197° |
| 2026-04-23 20:14 | 22.07483 | -16.64053 | 30992 ft | 442 kts | 197° |
| 2026-04-23 20:14 | 22.01604 | -16.66010 | 30992 ft | 442 kts | 197° |
| 2026-04-23 20:15 | 21.95723 | -16.67970 | 30992 ft | 442 kts | 197° |
| 2026-04-23 20:15 | 21.89841 | -16.69928 | 30992 ft | 442 kts | 197° |
| 2026-04-23 20:16 | 21.83962 | -16.71882 | 30992 ft | 442 kts | 197° |
| 2026-04-23 20:16 | 21.78086 | -16.73839 | 30992 ft | 442 kts | 197° |
| 2026-04-23 20:17 | 21.72204 | -16.75790 | 30992 ft | 442 kts | 197° |
| 2026-04-23 20:17 | 21.66325 | -16.77736 | 30992 ft | 442 kts | 197° |
| 2026-04-23 20:18 | 21.60444 | -16.79684 | 30992 ft | 442 kts | 197° |
| 2026-04-23 20:18 | 21.54568 | -16.81638 | 30992 ft | 442 kts | 197° |
| 2026-04-23 20:19 | 21.48690 | -16.83586 | 30992 ft | 442 kts | 197° |
| 2026-04-23 20:19 | 21.42806 | -16.85520 | 30992 ft | 442 kts | 197° |
| 2026-04-23 20:20 | 21.36924 | -16.87461 | 30992 ft | 442 kts | 197° |
| 2026-04-23 20:20 | 21.31043 | -16.89406 | 30992 ft | 442 kts | 197° |
| 2026-04-23 20:21 | 21.25163 | -16.91347 | 30992 ft | 442 kts | 197° |
| 2026-04-23 20:21 | 21.19284 | -16.93285 | 30992 ft | 442 kts | 197° |
| 2026-04-23 20:22 | 21.13406 | -16.95220 | 30992 ft | 442 kts | 197° |
| 2026-04-23 20:22 | 21.07523 | -16.97150 | 30992 ft | 442 kts | 197° |
| 2026-04-23 20:23 | 21.01642 | -16.99081 | 30992 ft | 442 kts | 197° |
| 2026-04-23 20:23 | 20.95761 | -17.01011 | 30992 ft | 442 kts | 197° |
| 2026-04-23 20:24 | 20.89879 | -17.02943 | 30992 ft | 442 kts | 197° |
| 2026-04-23 20:24 | 20.83996 | -17.04870 | 30992 ft | 442 kts | 197° |
| 2026-04-23 20:25 | 20.78152 | -17.06782 | 30992 ft | 442 kts | 196° |
| 2026-04-23 20:25 | 20.75102 | -17.07445 | 30989 ft | 442 kts | 185° |
| 2026-04-23 20:25 | 20.72038 | -17.07442 | 30989 ft | 441 kts | 173° |
| 2026-04-23 20:25 | 20.69037 | -17.06792 | 30989 ft | 441 kts | 162° |
| 2026-04-23 20:26 | 20.66208 | -17.05529 | 30988 ft | 441 kts | 152° |
| 2026-04-23 20:26 | 20.60788 | -17.02458 | 30988 ft | 441 kts | 152° |
| 2026-04-23 20:27 | 20.55387 | -16.99418 | 30988 ft | 442 kts | 152° |
| 2026-04-23 20:27 | 20.49910 | -16.96345 | 30989 ft | 442 kts | 152° |
| 2026-04-23 20:28 | 20.44507 | -16.93308 | 30990 ft | 442 kts | 152° |
| 2026-04-23 20:28 | 20.39071 | -16.90240 | 30991 ft | 442 kts | 152° |
| 2026-04-23 20:29 | 20.33633 | -16.87175 | 30992 ft | 442 kts | 152° |
| 2026-04-23 20:29 | 20.28190 | -16.84116 | 30992 ft | 442 kts | 152° |
| 2026-04-23 20:30 | 20.22746 | -16.81064 | 30993 ft | 442 kts | 152° |
| 2026-04-23 20:30 | 20.14579 | -16.76489 | 30993 ft | 442 kts | 152° |
| 2026-04-23 20:31 | 20.09132 | -16.73446 | 30993 ft | 442 kts | 152° |
| 2026-04-23 20:31 | 20.03682 | -16.70397 | 30993 ft | 442 kts | 152° |
| 2026-04-23 20:32 | 19.98240 | -16.67351 | 30993 ft | 442 kts | 153° |
| 2026-04-23 20:32 | 19.92525 | -16.64946 | 30993 ft | 442 kts | 160° |
| 2026-04-23 20:33 | 19.86739 | -16.62713 | 30993 ft | 442 kts | 160° |
| 2026-04-23 20:33 | 19.80959 | -16.60477 | 30993 ft | 442 kts | 160° |
| 2026-04-23 20:34 | 19.75167 | -16.58238 | 30873 ft | 444 kts | 160° |
| 2026-04-23 20:34 | 19.72272 | -16.57119 | 30547 ft | 444 kts | 160° |
| 2026-04-23 20:34 | 19.69369 | -16.55999 | 30222 ft | 444 kts | 160° |
| 2026-04-23 20:35 | 19.66463 | -16.54878 | 29897 ft | 445 kts | 160° |
| 2026-04-23 20:35 | 19.63552 | -16.53756 | 29565 ft | 445 kts | 160° |
| 2026-04-23 20:35 | 19.60642 | -16.52632 | 29248 ft | 446 kts | 160° |
| 2026-04-23 20:35 | 19.57725 | -16.51505 | 28924 ft | 447 kts | 160° |
| 2026-04-23 20:36 | 19.54813 | -16.50382 | 28596 ft | 442 kts | 160° |
| 2026-04-23 20:36 | 19.51935 | -16.49272 | 28274 ft | 438 kts | 160° |
| 2026-04-23 20:36 | 19.49074 | -16.48171 | 27947 ft | 438 kts | 160° |
| 2026-04-23 20:36 | 19.46208 | -16.47072 | 27622 ft | 438 kts | 160° |
| 2026-04-23 20:37 | 19.43342 | -16.45975 | 27297 ft | 438 kts | 160° |
| 2026-04-23 20:37 | 19.40466 | -16.44877 | 26972 ft | 439 kts | 160° |
| 2026-04-23 20:37 | 19.37593 | -16.43779 | 26646 ft | 440 kts | 160° |
| 2026-04-23 20:37 | 19.34712 | -16.42681 | 26321 ft | 440 kts | 160° |
| 2026-04-23 20:38 | 19.31830 | -16.41578 | 25997 ft | 441 kts | 160° |
| 2026-04-23 20:38 | 19.28942 | -16.40466 | 25671 ft | 442 kts | 160° |
| 2026-04-23 20:38 | 19.26056 | -16.39348 | 25339 ft | 442 kts | 160° |
| 2026-04-23 20:38 | 19.23165 | -16.38225 | 25022 ft | 443 kts | 160° |
| 2026-04-23 20:39 | 19.20265 | -16.37097 | 24700 ft | 444 kts | 160° |
| 2026-04-23 20:39 | 19.17368 | -16.35967 | 24368 ft | 444 kts | 160° |
| 2026-04-23 20:39 | 19.14464 | -16.34839 | 24043 ft | 445 kts | 160° |
| 2026-04-23 20:39 | 19.11555 | -16.33717 | 23718 ft | 446 kts | 160° |
| 2026-04-23 20:40 | 19.08641 | -16.32597 | 23394 ft | 446 kts | 160° |
| 2026-04-23 20:40 | 19.05721 | -16.31476 | 23067 ft | 447 kts | 160° |
| 2026-04-23 20:40 | 19.03785 | -16.30733 | 22851 ft | 447 kts | 160° |
| 2026-04-23 20:40 | 19.00856 | -16.29610 | 22525 ft | 448 kts | 160° |
| 2026-04-23 20:41 | 18.97923 | -16.28484 | 22194 ft | 449 kts | 160° |
| 2026-04-23 20:41 | 18.94992 | -16.27351 | 21874 ft | 449 kts | 160° |
| 2026-04-23 20:41 | 18.92053 | -16.26215 | 21552 ft | 450 kts | 160° |
| 2026-04-23 20:41 | 18.89113 | -16.25083 | 21222 ft | 450 kts | 160° |
| 2026-04-23 20:42 | 18.86165 | -16.23950 | 20897 ft | 451 kts | 160° |
| 2026-04-23 20:42 | 18.83236 | -16.22825 | 20580 ft | 444 kts | 160° |
| 2026-04-23 20:42 | 18.80346 | -16.21712 | 20249 ft | 442 kts | 160° |
| 2026-04-23 20:42 | 18.77458 | -16.20601 | 19920 ft | 441 kts | 160° |
| 2026-04-23 20:43 | 18.74570 | -16.19491 | 19588 ft | 442 kts | 160° |
| 2026-04-23 20:43 | 18.71680 | -16.18380 | 19273 ft | 442 kts | 160° |
| 2026-04-23 20:43 | 18.68785 | -16.17272 | 18943 ft | 443 kts | 160° |
| 2026-04-23 20:43 | 18.65894 | -16.16170 | 18617 ft | 441 kts | 160° |
| 2026-04-23 20:44 | 18.63014 | -16.15071 | 18286 ft | 439 kts | 160° |
| 2026-04-23 20:44 | 18.60144 | -16.13974 | 17966 ft | 437 kts | 160° |
| 2026-04-23 20:44 | 18.57323 | -16.12800 | 17634 ft | 435 kts | 153° |
| 2026-04-23 20:44 | 18.54843 | -16.11000 | 17309 ft | 433 kts | 137° |
| 2026-04-23 20:45 | 18.52674 | -16.08827 | 16982 ft | 424 kts | 136° |
| 2026-04-23 20:45 | 18.50577 | -16.06701 | 16633 ft | 415 kts | 136° |
| 2026-04-23 20:45 | 18.48507 | -16.04598 | 16258 ft | 413 kts | 136° |
| 2026-04-23 20:45 | 18.46444 | -16.02501 | 15883 ft | 412 kts | 136° |
| 2026-04-23 20:46 | 18.44411 | -16.00437 | 15507 ft | 401 kts | 136° |
| 2026-04-23 20:46 | 18.42423 | -15.98423 | 15128 ft | 392 kts | 136° |
| 2026-04-23 20:46 | 18.40472 | -15.96451 | 14758 ft | 391 kts | 136° |
| 2026-04-23 20:46 | 18.38514 | -15.94472 | 14383 ft | 391 kts | 136° |
| 2026-04-23 20:47 | 18.36554 | -15.92494 | 14008 ft | 391 kts | 136° |
| 2026-04-23 20:47 | 18.34587 | -15.90510 | 13632 ft | 392 kts | 136° |
| 2026-04-23 20:47 | 18.32616 | -15.88525 | 13257 ft | 392 kts | 136° |
| 2026-04-23 20:47 | 18.30646 | -15.86536 | 12881 ft | 393 kts | 136° |
| 2026-04-23 20:48 | 18.28674 | -15.84546 | 12505 ft | 393 kts | 136° |
| 2026-04-23 20:48 | 18.26697 | -15.82553 | 12131 ft | 394 kts | 136° |
| 2026-04-23 20:48 | 18.24718 | -15.80555 | 11756 ft | 395 kts | 136° |
| 2026-04-23 20:48 | 18.22755 | -15.78574 | 11377 ft | 385 kts | 136° |
| 2026-04-23 20:49 | 18.20850 | -15.76656 | 11001 ft | 373 kts | 136° |
| 2026-04-23 20:49 | 18.19003 | -15.74798 | 10614 ft | 362 kts | 136° |
| 2026-04-23 20:49 | 18.17207 | -15.72991 | 10216 ft | 352 kts | 136° |
| 2026-04-23 20:49 | 18.15459 | -15.71231 | 9817 ft | 344 kts | 136° |
| 2026-04-23 20:50 | 18.13576 | -15.69796 | 9413 ft | 326 kts | 157° |
| 2026-04-23 20:50 | 18.11440 | -15.69369 | 9029 ft | 306 kts | 184° |
| 2026-04-23 20:50 | 18.09465 | -15.69947 | 8616 ft | 289 kts | 210° |
| 2026-04-23 20:50 | 18.07989 | -15.71274 | 8216 ft | 275 kts | 234° |
| 2026-04-23 20:51 | 18.07177 | -15.73026 | 7816 ft | 262 kts | 257° |
| 2026-04-23 20:51 | 18.07061 | -15.74884 | 7412 ft | 251 kts | 278° |
| 2026-04-23 20:51 | 18.07573 | -15.76588 | 7018 ft | 241 kts | 299° |
| 2026-04-23 20:51 | 18.08381 | -15.78093 | 6614 ft | 232 kts | 290° |
| 2026-04-23 20:52 | 18.08670 | -15.79718 | 6212 ft | 224 kts | 269° |
| 2026-04-23 20:52 | 18.08457 | -15.81314 | 5820 ft | 220 kts | 253° |
| 2026-04-23 20:52 | 18.07849 | -15.82766 | 5406 ft | 216 kts | 239° |
| 2026-04-23 20:52 | 18.07271 | -15.84169 | 5052 ft | 206 kts | 265° |
| 2026-04-23 20:53 | 18.07671 | -15.85546 | 4652 ft | 199 kts | 312° |
| 2026-04-23 20:53 | 18.08860 | -15.86146 | 4291 ft | 191 kts | 359° |
| 2026-04-23 20:53 | 18.10147 | -15.86081 | 4037 ft | 180 kts | 0° |
| 2026-04-23 20:53 | 18.11365 | -15.86080 | 3824 ft | 171 kts | 360° |
| 2026-04-23 20:54 | 18.12533 | -15.86162 | 3622 ft | 167 kts | 348° |
| 2026-04-23 20:54 | 18.13618 | -15.86531 | 3431 ft | 163 kts | 337° |
| 2026-04-23 20:54 | 18.14609 | -15.87026 | 3241 ft | 156 kts | 333° |
| 2026-04-23 20:54 | 18.15556 | -15.87562 | 3032 ft | 153 kts | 331° |
| 2026-04-23 20:55 | 18.16476 | -15.88105 | 2828 ft | 151 kts | 330° |
| 2026-04-23 20:55 | 18.17381 | -15.88650 | 2629 ft | 149 kts | 330° |
| 2026-04-23 20:55 | 18.18272 | -15.89191 | 2431 ft | 149 kts | 330° |
| 2026-04-23 20:55 | 18.19165 | -15.89735 | 2236 ft | 148 kts | 330° |
| 2026-04-23 20:56 | 18.20056 | -15.90279 | 2041 ft | 148 kts | 330° |
| 2026-04-23 20:56 | 18.20944 | -15.90821 | 1843 ft | 147 kts | 330° |
| 2026-04-23 20:56 | 18.21829 | -15.91361 | 1648 ft | 147 kts | 330° |
| 2026-04-23 20:56 | 18.22711 | -15.91900 | 1453 ft | 146 kts | 330° |
| 2026-04-23 20:57 | 18.23591 | -15.92438 | 1259 ft | 146 kts | 330° |
| 2026-04-23 20:57 | 18.24468 | -15.92974 | 1066 ft | 146 kts | 330° |
| 2026-04-23 20:57 | 18.25342 | -15.93509 | 872 ft | 145 kts | 330° |
| 2026-04-23 20:57 | 18.26214 | -15.94042 | 676 ft | 145 kts | 330° |
| 2026-04-23 20:58 | 18.27086 | -15.94575 | 484 ft | 144 kts | 330° |
| 2026-04-23 20:58 | 18.27953 | -15.95105 | 299 ft | 144 kts | 330° |
| 2026-04-23 20:58 | 18.28817 | -15.95633 | 111 ft | 143 kts | 330° |
| 2026-04-23 20:58 | 18.29675 | -15.96158 | 33 ft | 142 kts | 330° |
| 2026-04-23 20:59 | 18.30474 | -15.96647 | 11 ft | 87 kts | 329° |
| 2026-04-23 20:59 | 18.30770 | -15.96832 | 11 ft | 42 kts | 329° |
| 2026-04-23 20:59 | 18.30955 | -15.96934 | 12 ft | 23 kts | 351° |
| 2026-04-23 20:59 | 18.31035 | -15.96821 | 11 ft | 21 kts | 100° |
| 2026-04-23 21:00 | 18.30921 | -15.96723 | 9 ft | 23 kts | 148° |
| 2026-04-23 21:00 | 18.30842 | -15.96599 | 8 ft | 18 kts | 130° |
| 2026-04-23 21:00 | 18.30758 | -15.96494 | 7 ft | 18 kts | 103° |
| 2026-04-23 21:00 | 18.30784 | -15.96418 | 8 ft | 7 kts | 63° |
| 2026-04-23 21:01 | 18.30798 | -15.96391 | 8 ft | 0 kts | 58° |